sensor_id;sensor_type;location;lat;lon;timestamp;P1;P2;P0
64861;PMS5003;62652;42.274;-71.436;2023-07-13T00:00:01;27.40;26.90;18.27
64861;PMS5003;62652;42.274;-71.436;2023-07-13T00:01:00;28.17;27.43;19.13
64861;PMS5003;62652;42.274;-71.436;2023-07-13T00:02:00;25.67;25.17;18.47
64861;PMS5003;62652;42.274;-71.436;2023-07-13T00:03:00;26.50;25.73;18.73
64861;PMS5003;62652;42.274;-71.436;2023-07-13T00:04:01;25.57;24.37;17.53
64861;PMS5003;62652;42.274;-71.436;2023-07-13T00:05:00;25.93;24.90;18.03
64861;PMS5003;62652;42.274;-71.436;2023-07-13T00:06:00;28.23;28.23;19.50
64861;PMS5003;62652;42.274;-71.436;2023-07-13T00:07:00;27.33;26.27;18.67
64861;PMS5003;62652;42.274;-71.436;2023-07-13T00:08:00;25.87;25.77;18.03
64861;PMS5003;62652;42.274;-71.436;2023-07-13T00:09:00;27.57;26.77;18.37
64861;PMS5003;62652;42.274;-71.436;2023-07-13T00:10:00;27.13;26.20;18.77
64861;PMS5003;62652;42.274;-71.436;2023-07-13T00:11:00;27.70;27.00;19.67
64861;PMS5003;62652;42.274;-71.436;2023-07-13T00:12:00;26.77;25.10;18.00
64861;PMS5003;62652;42.274;-71.436;2023-07-13T00:13:01;26.90;26.90;19.27
64861;PMS5003;62652;42.274;-71.436;2023-07-13T00:14:00;28.33;27.27;19.60
64861;PMS5003;62652;42.274;-71.436;2023-07-13T00:15:01;26.70;26.03;19.87
64861;PMS5003;62652;42.274;-71.436;2023-07-13T00:16:00;27.60;27.03;19.10
64861;PMS5003;62652;42.274;-71.436;2023-07-13T00:17:00;27.47;26.00;18.33
64861;PMS5003;62652;42.274;-71.436;2023-07-13T00:18:00;26.00;25.00;18.53
64861;PMS5003;62652;42.274;-71.436;2023-07-13T00:19:00;25.60;25.43;18.23
64861;PMS5003;62652;42.274;-71.436;2023-07-13T00:20:00;25.33;25.33;18.57
64861;PMS5003;62652;42.274;-71.436;2023-07-13T00:21:00;28.17;27.50;18.37
64861;PMS5003;62652;42.274;-71.436;2023-07-13T00:22:00;31.87;28.90;19.37
64861;PMS5003;62652;42.274;-71.436;2023-07-13T00:23:00;28.10;26.87;18.93
64861;PMS5003;62652;42.274;-71.436;2023-07-13T00:24:01;27.97;26.87;18.50
64861;PMS5003;62652;42.274;-71.436;2023-07-13T00:25:00;26.50;25.93;18.47
64861;PMS5003;62652;42.274;-71.436;2023-07-13T00:26:00;25.47;24.53;19.03
64861;PMS5003;62652;42.274;-71.436;2023-07-13T00:27:00;25.07;24.77;18.67
64861;PMS5003;62652;42.274;-71.436;2023-07-13T00:28:00;28.17;27.27;17.97
64861;PMS5003;62652;42.274;-71.436;2023-07-13T00:29:00;24.50;24.13;18.33
64861;PMS5003;62652;42.274;-71.436;2023-07-13T00:30:00;23.67;23.00;18.30
64861;PMS5003;62652;42.274;-71.436;2023-07-13T00:31:00;32.43;29.77;18.30
64861;PMS5003;62652;42.274;-71.436;2023-07-13T00:32:01;28.53;26.57;19.23
64861;PMS5003;62652;42.274;-71.436;2023-07-13T00:33:00;25.30;24.03;17.67
64861;PMS5003;62652;42.274;-71.436;2023-07-13T00:34:00;28.27;26.57;18.97
64861;PMS5003;62652;42.274;-71.436;2023-07-13T00:35:01;25.50;25.00;19.13
64861;PMS5003;62652;42.274;-71.436;2023-07-13T00:36:00;29.00;27.10;19.00
64861;PMS5003;62652;42.274;-71.436;2023-07-13T00:37:00;26.87;26.10;18.00
64861;PMS5003;62652;42.274;-71.436;2023-07-13T00:38:00;24.30;23.97;16.93
64861;PMS5003;62652;42.274;-71.436;2023-07-13T00:39:00;29.40;28.63;19.20
64861;PMS5003;62652;42.274;-71.436;2023-07-13T00:40:00;23.77;23.43;18.03
64861;PMS5003;62652;42.274;-71.436;2023-07-13T00:41:00;26.60;25.10;17.63
64861;PMS5003;62652;42.274;-71.436;2023-07-13T00:42:00;26.87;26.67;17.93
64861;PMS5003;62652;42.274;-71.436;2023-07-13T00:43:00;25.60;25.60;18.80
64861;PMS5003;62652;42.274;-71.436;2023-07-13T00:44:00;25.43;24.87;17.53
64861;PMS5003;62652;42.274;-71.436;2023-07-13T00:45:01;24.63;23.83;18.30
64861;PMS5003;62652;42.274;-71.436;2023-07-13T00:46:10;24.60;24.40;16.93
64861;PMS5003;62652;42.274;-71.436;2023-07-13T00:47:00;25.77;24.70;18.23
64861;PMS5003;62652;42.274;-71.436;2023-07-13T00:48:00;24.67;23.60;17.50
64861;PMS5003;62652;42.274;-71.436;2023-07-13T00:49:01;25.80;24.97;16.83
64861;PMS5003;62652;42.274;-71.436;2023-07-13T00:50:00;23.03;22.37;16.67
64861;PMS5003;62652;42.274;-71.436;2023-07-13T00:51:00;22.07;20.63;15.73
64861;PMS5003;62652;42.274;-71.436;2023-07-13T00:52:02;20.20;20.20;15.33
64861;PMS5003;62652;42.274;-71.436;2023-07-13T00:53:00;21.90;21.27;15.63
64861;PMS5003;62652;42.274;-71.436;2023-07-13T00:54:04;23.57;22.93;15.53
64861;PMS5003;62652;42.274;-71.436;2023-07-13T00:55:00;20.30;19.63;16.03
64861;PMS5003;62652;42.274;-71.436;2023-07-13T00:56:00;20.63;19.33;13.93
64861;PMS5003;62652;42.274;-71.436;2023-07-13T00:57:02;21.80;20.60;15.57
64861;PMS5003;62652;42.274;-71.436;2023-07-13T00:58:00;19.63;18.83;13.23
64861;PMS5003;62652;42.274;-71.436;2023-07-13T00:59:00;21.60;21.40;14.73
64861;PMS5003;62652;42.274;-71.436;2023-07-13T01:00:03;20.40;20.20;14.47
64861;PMS5003;62652;42.274;-71.436;2023-07-13T01:01:00;17.73;17.73;12.90
64861;PMS5003;62652;42.274;-71.436;2023-07-13T01:02:00;17.57;17.57;13.93
64861;PMS5003;62652;42.274;-71.436;2023-07-13T01:03:00;19.73;19.27;15.27
64861;PMS5003;62652;42.274;-71.436;2023-07-13T01:04:00;17.77;17.23;13.13
64861;PMS5003;62652;42.274;-71.436;2023-07-13T01:05:00;21.47;20.63;13.73
64861;PMS5003;62652;42.274;-71.436;2023-07-13T01:06:00;18.33;17.40;13.57
64861;PMS5003;62652;42.274;-71.436;2023-07-13T01:07:00;18.73;18.37;13.07
64861;PMS5003;62652;42.274;-71.436;2023-07-13T01:08:01;18.40;17.60;13.33
64861;PMS5003;62652;42.274;-71.436;2023-07-13T01:09:00;19.53;18.63;14.10
64861;PMS5003;62652;42.274;-71.436;2023-07-13T01:10:00;19.17;18.53;13.43
64861;PMS5003;62652;42.274;-71.436;2023-07-13T01:11:00;21.10;19.07;13.57
64861;PMS5003;62652;42.274;-71.436;2023-07-13T01:12:00;19.30;18.93;12.60
64861;PMS5003;62652;42.274;-71.436;2023-07-13T01:13:00;19.07;17.90;13.70
64861;PMS5003;62652;42.274;-71.436;2023-07-13T01:14:00;19.53;17.70;13.53
64861;PMS5003;62652;42.274;-71.436;2023-07-13T01:15:01;19.13;17.97;12.70
64861;PMS5003;62652;42.274;-71.436;2023-07-13T01:16:02;18.03;17.37;13.07
64861;PMS5003;62652;42.274;-71.436;2023-07-13T01:17:00;19.43;19.00;12.47
64861;PMS5003;62652;42.274;-71.436;2023-07-13T01:18:00;19.73;19.63;12.90
64861;PMS5003;62652;42.274;-71.436;2023-07-13T01:19:01;17.97;17.47;12.83
64861;PMS5003;62652;42.274;-71.436;2023-07-13T01:20:00;17.83;17.83;12.93
64861;PMS5003;62652;42.274;-71.436;2023-07-13T01:21:01;22.57;21.30;13.60
64861;PMS5003;62652;42.274;-71.436;2023-07-13T01:22:00;20.10;19.33;12.83
64861;PMS5003;62652;42.274;-71.436;2023-07-13T01:23:00;19.30;18.97;14.17
64861;PMS5003;62652;42.274;-71.436;2023-07-13T01:24:00;18.23;18.20;13.43
64861;PMS5003;62652;42.274;-71.436;2023-07-13T01:25:01;20.23;19.77;13.63
64861;PMS5003;62652;42.274;-71.436;2023-07-13T01:26:00;17.50;17.10;12.83
64861;PMS5003;62652;42.274;-71.436;2023-07-13T01:27:00;19.90;19.67;13.27
64861;PMS5003;62652;42.274;-71.436;2023-07-13T01:28:00;18.83;18.07;13.43
64861;PMS5003;62652;42.274;-71.436;2023-07-13T01:29:00;17.77;17.57;13.47
64861;PMS5003;62652;42.274;-71.436;2023-07-13T01:30:00;15.90;15.80;12.23
64861;PMS5003;62652;42.274;-71.436;2023-07-13T01:31:00;18.23;17.30;13.00
64861;PMS5003;62652;42.274;-71.436;2023-07-13T01:32:00;21.43;21.33;14.73
64861;PMS5003;62652;42.274;-71.436;2023-07-13T01:33:00;16.83;16.83;13.03
64861;PMS5003;62652;42.274;-71.436;2023-07-13T01:34:00;20.50;19.33;14.73
64861;PMS5003;62652;42.274;-71.436;2023-07-13T01:35:00;19.33;18.43;13.03
64861;PMS5003;62652;42.274;-71.436;2023-07-13T01:36:00;18.70;18.07;13.73
64861;PMS5003;62652;42.274;-71.436;2023-07-13T01:37:00;19.70;19.57;13.97
64861;PMS5003;62652;42.274;-71.436;2023-07-13T01:38:00;18.50;18.50;13.37
64861;PMS5003;62652;42.274;-71.436;2023-07-13T01:39:00;18.90;18.37;14.03
64861;PMS5003;62652;42.274;-71.436;2023-07-13T01:40:00;19.40;18.83;14.10
64861;PMS5003;62652;42.274;-71.436;2023-07-13T01:41:01;18.67;18.57;13.93
64861;PMS5003;62652;42.274;-71.436;2023-07-13T01:42:00;18.03;17.93;13.87
64861;PMS5003;62652;42.274;-71.436;2023-07-13T01:43:00;19.97;19.17;15.00
64861;PMS5003;62652;42.274;-71.436;2023-07-13T01:44:00;19.17;19.17;14.23
64861;PMS5003;62652;42.274;-71.436;2023-07-13T01:45:00;21.07;20.43;14.53
64861;PMS5003;62652;42.274;-71.436;2023-07-13T01:46:00;20.23;19.70;15.60
64861;PMS5003;62652;42.274;-71.436;2023-07-13T01:47:00;19.90;19.80;14.60
64861;PMS5003;62652;42.274;-71.436;2023-07-13T01:48:00;17.87;17.57;12.67
64861;PMS5003;62652;42.274;-71.436;2023-07-13T01:49:00;19.53;18.97;13.83
64861;PMS5003;62652;42.274;-71.436;2023-07-13T01:50:00;18.67;18.57;13.60
64861;PMS5003;62652;42.274;-71.436;2023-07-13T01:51:00;18.57;17.97;13.60
64861;PMS5003;62652;42.274;-71.436;2023-07-13T01:52:01;18.97;18.97;14.13
64861;PMS5003;62652;42.274;-71.436;2023-07-13T01:53:00;19.77;18.60;13.57
64861;PMS5003;62652;42.274;-71.436;2023-07-13T01:54:00;20.03;17.97;13.13
64861;PMS5003;62652;42.274;-71.436;2023-07-13T01:55:00;19.23;18.30;12.23
64861;PMS5003;62652;42.274;-71.436;2023-07-13T01:56:00;18.87;17.93;12.30
64861;PMS5003;62652;42.274;-71.436;2023-07-13T01:57:00;19.70;19.53;14.00
64861;PMS5003;62652;42.274;-71.436;2023-07-13T01:58:00;18.33;17.33;12.97
64861;PMS5003;62652;42.274;-71.436;2023-07-13T01:59:00;18.03;17.83;12.27
64861;PMS5003;62652;42.274;-71.436;2023-07-13T02:00:01;20.57;19.83;13.97
64861;PMS5003;62652;42.274;-71.436;2023-07-13T02:01:00;18.17;17.57;13.57
64861;PMS5003;62652;42.274;-71.436;2023-07-13T02:02:00;20.40;18.83;13.90
64861;PMS5003;62652;42.274;-71.436;2023-07-13T02:03:01;18.20;18.20;13.20
64861;PMS5003;62652;42.274;-71.436;2023-07-13T02:04:00;20.53;18.93;14.20
64861;PMS5003;62652;42.274;-71.436;2023-07-13T02:05:00;19.50;19.00;13.13
64861;PMS5003;62652;42.274;-71.436;2023-07-13T02:06:00;19.47;18.63;13.87
64861;PMS5003;62652;42.274;-71.436;2023-07-13T02:07:00;22.30;20.77;14.90
64861;PMS5003;62652;42.274;-71.436;2023-07-13T02:08:00;18.20;18.13;13.60
64861;PMS5003;62652;42.274;-71.436;2023-07-13T02:09:00;20.70;20.63;14.30
64861;PMS5003;62652;42.274;-71.436;2023-07-13T02:10:00;19.37;19.37;14.33
64861;PMS5003;62652;42.274;-71.436;2023-07-13T02:11:02;19.93;18.97;14.00
64861;PMS5003;62652;42.274;-71.436;2023-07-13T02:12:00;20.70;18.40;13.50
64861;PMS5003;62652;42.274;-71.436;2023-07-13T02:13:00;17.90;17.70;12.83
64861;PMS5003;62652;42.274;-71.436;2023-07-13T02:14:01;18.07;18.07;13.53
64861;PMS5003;62652;42.274;-71.436;2023-07-13T02:15:00;21.37;19.43;13.37
64861;PMS5003;62652;42.274;-71.436;2023-07-13T02:16:00;18.07;18.07;14.03
64861;PMS5003;62652;42.274;-71.436;2023-07-13T02:17:00;19.23;19.23;14.63
64861;PMS5003;62652;42.274;-71.436;2023-07-13T02:18:00;20.03;19.87;14.47
64861;PMS5003;62652;42.274;-71.436;2023-07-13T02:19:00;20.93;20.93;15.33
64861;PMS5003;62652;42.274;-71.436;2023-07-13T02:20:00;20.73;19.97;14.13
64861;PMS5003;62652;42.274;-71.436;2023-07-13T02:21:00;19.20;18.60;14.33
64861;PMS5003;62652;42.274;-71.436;2023-07-13T02:22:00;22.30;21.80;16.70
64861;PMS5003;62652;42.274;-71.436;2023-07-13T02:23:00;20.57;20.27;15.47
64861;PMS5003;62652;42.274;-71.436;2023-07-13T02:24:00;18.73;18.73;14.10
64861;PMS5003;62652;42.274;-71.436;2023-07-13T02:25:00;19.73;19.73;14.20
64861;PMS5003;62652;42.274;-71.436;2023-07-13T02:26:01;25.10;24.27;15.70
64861;PMS5003;62652;42.274;-71.436;2023-07-13T02:27:00;21.10;20.73;14.67
64861;PMS5003;62652;42.274;-71.436;2023-07-13T02:28:00;19.57;19.00;14.03
64861;PMS5003;62652;42.274;-71.436;2023-07-13T02:29:00;20.20;19.57;14.90
64861;PMS5003;62652;42.274;-71.436;2023-07-13T02:30:00;21.87;21.43;15.53
64861;PMS5003;62652;42.274;-71.436;2023-07-13T02:31:08;24.20;21.80;15.93
64861;PMS5003;62652;42.274;-71.436;2023-07-13T02:32:00;21.33;20.37;14.70
64861;PMS5003;62652;42.274;-71.436;2023-07-13T02:33:00;22.97;22.70;16.87
64861;PMS5003;62652;42.274;-71.436;2023-07-13T02:34:00;20.97;19.93;15.33
64861;PMS5003;62652;42.274;-71.436;2023-07-13T02:35:00;21.03;20.73;15.57
64861;PMS5003;62652;42.274;-71.436;2023-07-13T02:36:01;20.10;19.30;15.07
64861;PMS5003;62652;42.274;-71.436;2023-07-13T02:37:00;19.03;19.03;15.40
64861;PMS5003;62652;42.274;-71.436;2023-07-13T02:38:00;24.30;23.93;15.53
64861;PMS5003;62652;42.274;-71.436;2023-07-13T02:39:01;21.60;21.40;15.90
64861;PMS5003;62652;42.274;-71.436;2023-07-13T02:40:00;22.13;21.73;16.53
64861;PMS5003;62652;42.274;-71.436;2023-07-13T02:41:00;21.33;19.70;15.97
64861;PMS5003;62652;42.274;-71.436;2023-07-13T02:42:00;24.40;22.53;15.70
64861;PMS5003;62652;42.274;-71.436;2023-07-13T02:43:00;21.73;21.03;16.23
64861;PMS5003;62652;42.274;-71.436;2023-07-13T02:44:01;23.53;21.80;15.17
64861;PMS5003;62652;42.274;-71.436;2023-07-13T02:45:00;22.40;21.13;14.77
64861;PMS5003;62652;42.274;-71.436;2023-07-13T02:46:00;19.13;18.50;14.73
64861;PMS5003;62652;42.274;-71.436;2023-07-13T02:47:00;22.97;21.53;15.67
64861;PMS5003;62652;42.274;-71.436;2023-07-13T02:48:00;23.27;21.77;15.73
64861;PMS5003;62652;42.274;-71.436;2023-07-13T02:49:00;20.50;19.77;15.17
64861;PMS5003;62652;42.274;-71.436;2023-07-13T02:50:00;22.10;21.13;14.40
64861;PMS5003;62652;42.274;-71.436;2023-07-13T02:51:00;22.60;21.17;14.83
64861;PMS5003;62652;42.274;-71.436;2023-07-13T02:52:00;22.33;22.13;14.87
64861;PMS5003;62652;42.274;-71.436;2023-07-13T02:53:00;19.83;19.47;14.57
64861;PMS5003;62652;42.274;-71.436;2023-07-13T02:54:00;20.33;20.23;14.90
64861;PMS5003;62652;42.274;-71.436;2023-07-13T02:55:00;21.53;21.23;14.50
64861;PMS5003;62652;42.274;-71.436;2023-07-13T02:56:00;23.10;22.67;14.47
64861;PMS5003;62652;42.274;-71.436;2023-07-13T02:57:00;20.17;19.63;14.17
64861;PMS5003;62652;42.274;-71.436;2023-07-13T02:58:00;20.50;19.93;15.00
64861;PMS5003;62652;42.274;-71.436;2023-07-13T02:59:00;20.20;19.87;15.30
64861;PMS5003;62652;42.274;-71.436;2023-07-13T03:00:00;20.83;19.50;14.63
64861;PMS5003;62652;42.274;-71.436;2023-07-13T03:01:05;21.87;20.17;15.33
64861;PMS5003;62652;42.274;-71.436;2023-07-13T03:02:00;22.90;22.10;16.17
64861;PMS5003;62652;42.274;-71.436;2023-07-13T03:03:00;23.63;23.07;15.23
64861;PMS5003;62652;42.274;-71.436;2023-07-13T03:04:00;22.33;21.80;15.13
64861;PMS5003;62652;42.274;-71.436;2023-07-13T03:05:00;24.23;23.23;15.70
64861;PMS5003;62652;42.274;-71.436;2023-07-13T03:06:01;23.00;22.27;17.13
64861;PMS5003;62652;42.274;-71.436;2023-07-13T03:07:00;24.10;23.97;16.40
64861;PMS5003;62652;42.274;-71.436;2023-07-13T03:08:00;23.10;21.50;15.47
64861;PMS5003;62652;42.274;-71.436;2023-07-13T03:09:00;24.13;22.03;16.00
64861;PMS5003;62652;42.274;-71.436;2023-07-13T03:10:00;23.70;22.93;16.00
64861;PMS5003;62652;42.274;-71.436;2023-07-13T03:11:01;21.30;20.50;14.73
64861;PMS5003;62652;42.274;-71.436;2023-07-13T03:12:00;22.90;22.00;15.87
64861;PMS5003;62652;42.274;-71.436;2023-07-13T03:13:00;21.33;21.07;16.13
64861;PMS5003;62652;42.274;-71.436;2023-07-13T03:14:00;21.40;21.07;16.50
64861;PMS5003;62652;42.274;-71.436;2023-07-13T03:15:00;25.03;24.07;16.63
64861;PMS5003;62652;42.274;-71.436;2023-07-13T03:16:00;23.00;21.93;16.00
64861;PMS5003;62652;42.274;-71.436;2023-07-13T03:17:00;23.90;22.90;15.97
64861;PMS5003;62652;42.274;-71.436;2023-07-13T03:18:00;20.27;19.63;14.83
64861;PMS5003;62652;42.274;-71.436;2023-07-13T03:19:00;23.07;21.27;15.53
64861;PMS5003;62652;42.274;-71.436;2023-07-13T03:20:01;22.07;21.07;15.70
64861;PMS5003;62652;42.274;-71.436;2023-07-13T03:21:00;23.07;21.90;16.37
64861;PMS5003;62652;42.274;-71.436;2023-07-13T03:22:00;23.37;22.60;15.60
64861;PMS5003;62652;42.274;-71.436;2023-07-13T03:23:00;23.63;23.63;16.07
64861;PMS5003;62652;42.274;-71.436;2023-07-13T03:24:00;21.93;21.40;15.43
64861;PMS5003;62652;42.274;-71.436;2023-07-13T03:25:00;22.57;22.57;16.50
64861;PMS5003;62652;42.274;-71.436;2023-07-13T03:26:01;24.03;23.47;15.93
64861;PMS5003;62652;42.274;-71.436;2023-07-13T03:27:01;27.97;25.37;17.10
64861;PMS5003;62652;42.274;-71.436;2023-07-13T03:28:00;21.37;21.27;15.10
64861;PMS5003;62652;42.274;-71.436;2023-07-13T03:29:00;23.87;23.10;16.20
64861;PMS5003;62652;42.274;-71.436;2023-07-13T03:30:00;22.57;21.57;16.37
64861;PMS5003;62652;42.274;-71.436;2023-07-13T03:31:01;24.00;23.50;16.23
64861;PMS5003;62652;42.274;-71.436;2023-07-13T03:32:00;23.17;22.83;16.13
64861;PMS5003;62652;42.274;-71.436;2023-07-13T03:33:00;24.50;22.90;15.37
64861;PMS5003;62652;42.274;-71.436;2023-07-13T03:34:00;23.03;23.03;15.67
64861;PMS5003;62652;42.274;-71.436;2023-07-13T03:35:00;22.87;21.90;16.37
64861;PMS5003;62652;42.274;-71.436;2023-07-13T03:36:00;23.47;23.10;17.20
64861;PMS5003;62652;42.274;-71.436;2023-07-13T03:37:00;21.40;21.30;15.00
64861;PMS5003;62652;42.274;-71.436;2023-07-13T03:38:00;23.57;23.00;15.33
64861;PMS5003;62652;42.274;-71.436;2023-07-13T03:39:02;24.30;23.83;16.73
64861;PMS5003;62652;42.274;-71.436;2023-07-13T03:40:00;27.43;26.43;17.40
64861;PMS5003;62652;42.274;-71.436;2023-07-13T03:41:00;24.13;23.53;16.37
64861;PMS5003;62652;42.274;-71.436;2023-07-13T03:42:00;25.80;24.53;17.90
64861;PMS5003;62652;42.274;-71.436;2023-07-13T03:43:00;23.43;23.00;17.23
64861;PMS5003;62652;42.274;-71.436;2023-07-13T03:44:00;28.13;27.90;18.30
64861;PMS5003;62652;42.274;-71.436;2023-07-13T03:45:00;27.30;25.40;17.87
64861;PMS5003;62652;42.274;-71.436;2023-07-13T03:46:00;32.00;29.83;18.17
64861;PMS5003;62652;42.274;-71.436;2023-07-13T03:47:00;25.37;24.70;18.27
64861;PMS5003;62652;42.274;-71.436;2023-07-13T03:48:00;26.60;26.00;18.30
64861;PMS5003;62652;42.274;-71.436;2023-07-13T03:49:00;26.87;26.20;18.00
64861;PMS5003;62652;42.274;-71.436;2023-07-13T03:50:00;28.03;27.10;18.63
64861;PMS5003;62652;42.274;-71.436;2023-07-13T03:51:00;25.60;25.60;18.30
64861;PMS5003;62652;42.274;-71.436;2023-07-13T03:52:00;25.07;25.07;18.43
64861;PMS5003;62652;42.274;-71.436;2023-07-13T03:53:00;25.40;23.70;18.80
64861;PMS5003;62652;42.274;-71.436;2023-07-13T03:54:00;26.00;24.70;17.47
64861;PMS5003;62652;42.274;-71.436;2023-07-13T03:55:00;30.17;28.47;19.63
64861;PMS5003;62652;42.274;-71.436;2023-07-13T03:56:00;29.37;27.03;18.17
64861;PMS5003;62652;42.274;-71.436;2023-07-13T03:57:00;27.83;26.27;18.30
64861;PMS5003;62652;42.274;-71.436;2023-07-13T03:59:00;25.80;25.03;18.10
64861;PMS5003;62652;42.274;-71.436;2023-07-13T04:00:00;26.60;26.37;17.30
64861;PMS5003;62652;42.274;-71.436;2023-07-13T04:01:00;26.27;24.50;17.70
64861;PMS5003;62652;42.274;-71.436;2023-07-13T04:02:00;23.30;23.07;17.13
64861;PMS5003;62652;42.274;-71.436;2023-07-13T04:03:00;26.53;26.23;17.27
64861;PMS5003;62652;42.274;-71.436;2023-07-13T04:04:00;23.70;22.77;16.33
64861;PMS5003;62652;42.274;-71.436;2023-07-13T04:05:00;24.20;24.20;17.33
64861;PMS5003;62652;42.274;-71.436;2023-07-13T04:06:00;23.33;23.13;16.90
64861;PMS5003;62652;42.274;-71.436;2023-07-13T04:07:00;26.80;26.27;17.67
64861;PMS5003;62652;42.274;-71.436;2023-07-13T04:08:00;26.20;26.00;17.57
64861;PMS5003;62652;42.274;-71.436;2023-07-13T04:09:01;23.33;22.50;17.87
64861;PMS5003;62652;42.274;-71.436;2023-07-13T04:10:00;27.17;25.07;17.50
64861;PMS5003;62652;42.274;-71.436;2023-07-13T04:11:00;26.90;24.97;19.07
64861;PMS5003;62652;42.274;-71.436;2023-07-13T04:12:00;26.57;24.50;16.53
64861;PMS5003;62652;42.274;-71.436;2023-07-13T04:13:00;23.23;22.13;16.60
64861;PMS5003;62652;42.274;-71.436;2023-07-13T04:14:00;24.50;23.93;17.40
64861;PMS5003;62652;42.274;-71.436;2023-07-13T04:15:00;26.93;26.33;17.63
64861;PMS5003;62652;42.274;-71.436;2023-07-13T04:16:00;27.23;26.17;17.57
64861;PMS5003;62652;42.274;-71.436;2023-07-13T04:17:00;25.77;25.00;18.67
64861;PMS5003;62652;42.274;-71.436;2023-07-13T04:18:00;28.77;27.10;18.70
64861;PMS5003;62652;42.274;-71.436;2023-07-13T04:19:00;23.67;23.47;17.97
64861;PMS5003;62652;42.274;-71.436;2023-07-13T04:20:00;26.60;25.20;18.20
64861;PMS5003;62652;42.274;-71.436;2023-07-13T04:21:00;27.17;26.17;18.37
64861;PMS5003;62652;42.274;-71.436;2023-07-13T04:22:00;27.57;26.37;18.30
64861;PMS5003;62652;42.274;-71.436;2023-07-13T04:23:00;27.27;24.57;18.20
64861;PMS5003;62652;42.274;-71.436;2023-07-13T04:24:00;26.70;25.67;18.23
64861;PMS5003;62652;42.274;-71.436;2023-07-13T04:25:00;25.10;24.47;17.53
64861;PMS5003;62652;42.274;-71.436;2023-07-13T04:26:01;26.70;26.03;18.07
64861;PMS5003;62652;42.274;-71.436;2023-07-13T04:27:00;26.27;25.23;17.63
64861;PMS5003;62652;42.274;-71.436;2023-07-13T04:28:00;24.40;23.80;17.33
64861;PMS5003;62652;42.274;-71.436;2023-07-13T04:29:00;25.40;24.10;16.30
64861;PMS5003;62652;42.274;-71.436;2023-07-13T04:30:00;26.23;25.50;17.33
64861;PMS5003;62652;42.274;-71.436;2023-07-13T04:31:00;23.33;22.37;16.60
64861;PMS5003;62652;42.274;-71.436;2023-07-13T04:32:00;25.23;24.70;18.47
64861;PMS5003;62652;42.274;-71.436;2023-07-13T04:33:00;25.63;24.63;18.93
64861;PMS5003;62652;42.274;-71.436;2023-07-13T04:34:00;23.43;22.90;17.23
64861;PMS5003;62652;42.274;-71.436;2023-07-13T04:35:00;25.53;24.70;15.90
64861;PMS5003;62652;42.274;-71.436;2023-07-13T04:36:00;24.03;22.63;17.00
64861;PMS5003;62652;42.274;-71.436;2023-07-13T04:37:00;27.33;26.87;19.10
64861;PMS5003;62652;42.274;-71.436;2023-07-13T04:38:00;26.90;24.57;17.50
64861;PMS5003;62652;42.274;-71.436;2023-07-13T04:39:00;23.17;23.17;17.43
64861;PMS5003;62652;42.274;-71.436;2023-07-13T04:40:00;24.80;23.73;17.80
64861;PMS5003;62652;42.274;-71.436;2023-07-13T04:41:01;27.80;24.97;18.37
64861;PMS5003;62652;42.274;-71.436;2023-07-13T04:42:00;24.93;23.63;16.27
64861;PMS5003;62652;42.274;-71.436;2023-07-13T04:43:00;28.47;25.43;18.23
64861;PMS5003;62652;42.274;-71.436;2023-07-13T04:44:00;28.27;27.00;18.27
64861;PMS5003;62652;42.274;-71.436;2023-07-13T04:45:00;25.30;24.47;17.40
64861;PMS5003;62652;42.274;-71.436;2023-07-13T04:46:03;26.27;25.10;16.90
64861;PMS5003;62652;42.274;-71.436;2023-07-13T04:47:00;28.07;27.70;18.53
64861;PMS5003;62652;42.274;-71.436;2023-07-13T04:48:00;26.20;25.77;18.37
64861;PMS5003;62652;42.274;-71.436;2023-07-13T04:49:00;28.50;27.67;18.33
64861;PMS5003;62652;42.274;-71.436;2023-07-13T04:50:00;25.97;25.67;18.97
64861;PMS5003;62652;42.274;-71.436;2023-07-13T04:51:00;22.10;21.93;15.70
64861;PMS5003;62652;42.274;-71.436;2023-07-13T04:52:00;30.00;28.87;19.07
64861;PMS5003;62652;42.274;-71.436;2023-07-13T04:53:00;26.17;25.13;17.67
64861;PMS5003;62652;42.274;-71.436;2023-07-13T04:54:00;25.57;25.27;17.83
64861;PMS5003;62652;42.274;-71.436;2023-07-13T04:55:00;27.07;25.73;17.30
64861;PMS5003;62652;42.274;-71.436;2023-07-13T04:56:00;25.17;24.23;16.80
64861;PMS5003;62652;42.274;-71.436;2023-07-13T04:57:00;25.30;24.77;18.50
64861;PMS5003;62652;42.274;-71.436;2023-07-13T04:58:00;25.90;25.73;18.57
64861;PMS5003;62652;42.274;-71.436;2023-07-13T04:59:00;28.10;26.77;18.90
64861;PMS5003;62652;42.274;-71.436;2023-07-13T05:00:00;25.70;24.77;17.67
64861;PMS5003;62652;42.274;-71.436;2023-07-13T05:01:00;26.13;25.40;18.20
64861;PMS5003;62652;42.274;-71.436;2023-07-13T05:02:00;26.87;24.93;18.03
64861;PMS5003;62652;42.274;-71.436;2023-07-13T05:03:00;28.03;27.57;18.00
64861;PMS5003;62652;42.274;-71.436;2023-07-13T05:04:00;27.97;27.10;18.67
64861;PMS5003;62652;42.274;-71.436;2023-07-13T05:05:00;25.73;25.43;16.73
64861;PMS5003;62652;42.274;-71.436;2023-07-13T05:06:01;28.67;27.57;18.67
64861;PMS5003;62652;42.274;-71.436;2023-07-13T05:07:00;27.93;27.03;17.23
64861;PMS5003;62652;42.274;-71.436;2023-07-13T05:08:00;25.20;25.00;17.83
64861;PMS5003;62652;42.274;-71.436;2023-07-13T05:09:00;24.67;22.57;16.63
64861;PMS5003;62652;42.274;-71.436;2023-07-13T05:10:00;26.60;26.17;17.00
64861;PMS5003;62652;42.274;-71.436;2023-07-13T05:11:00;26.93;25.80;19.23
64861;PMS5003;62652;42.274;-71.436;2023-07-13T05:12:00;24.00;22.80;16.40
64861;PMS5003;62652;42.274;-71.436;2023-07-13T05:13:00;27.73;26.17;18.13
64861;PMS5003;62652;42.274;-71.436;2023-07-13T05:14:00;24.33;23.30;18.03
64861;PMS5003;62652;42.274;-71.436;2023-07-13T05:15:01;27.97;26.67;18.13
64861;PMS5003;62652;42.274;-71.436;2023-07-13T05:16:01;25.67;24.93;17.77
64861;PMS5003;62652;42.274;-71.436;2023-07-13T05:17:00;21.60;21.60;17.13
64861;PMS5003;62652;42.274;-71.436;2023-07-13T05:18:00;26.43;25.93;18.40
64861;PMS5003;62652;42.274;-71.436;2023-07-13T05:19:00;26.47;26.40;17.23
64861;PMS5003;62652;42.274;-71.436;2023-07-13T05:20:00;24.70;23.70;17.87
64861;PMS5003;62652;42.274;-71.436;2023-07-13T05:21:01;25.40;24.43;17.67
64861;PMS5003;62652;42.274;-71.436;2023-07-13T05:22:00;24.63;24.50;17.67
64861;PMS5003;62652;42.274;-71.436;2023-07-13T05:23:00;24.47;23.37;16.83
64861;PMS5003;62652;42.274;-71.436;2023-07-13T05:24:00;28.33;27.23;18.63
64861;PMS5003;62652;42.274;-71.436;2023-07-13T05:25:00;23.57;23.33;16.20
64861;PMS5003;62652;42.274;-71.436;2023-07-13T05:26:01;27.10;25.33;18.17
64861;PMS5003;62652;42.274;-71.436;2023-07-13T05:27:00;22.73;22.47;16.97